East Glenville, New York
Current Conditions -  °F | °C
As of 5:51 AM on Monday 20 Oct 2014 (Local Time) from KALB Reporting Station
Scattered Clouds Scattered Clouds  
Wind Chill: 31°   Ceiling: Unl
Heat Index: 31°   Visibility: 10mi
Dew Point: 27°   Wind: 3mph
Humidity: 85%   Direction: 150°SSE
Pressure: 30.05"   Gusts: NA
Location:  42.8821°N, 73.9859°W
Report Text: KALB 200951Z 15003KT 10SM SCT130 M01/M03 A3005 RMK AO2 SLP177 SCT V BKN T10061028 $
Loading
Personal Weather Stations






























Interactive Weather Map
Tropical Storm Tracking
New forecast layout! Learn more

10-Day Weather Forecast

Advertisements
Track Severe Weather on mobile